createdAt,value
2019-05-26T00:00:45.288Z,13.20
2019-05-26T00:03:14.206Z,13.10
2019-05-26T00:05:43.128Z,13.20
2019-05-26T00:08:12.043Z,13.10
2019-05-26T00:10:41.126Z,13.10
2019-05-26T00:13:10.030Z,13.10
2019-05-26T00:15:39.527Z,13.00
2019-05-26T00:18:08.430Z,13.00
2019-05-26T00:20:37.350Z,13.00
2019-05-26T00:23:07.122Z,13.00
2019-05-26T00:25:35.957Z,12.90
2019-05-26T00:28:05.470Z,12.90
2019-05-26T00:30:34.458Z,12.90
2019-05-26T00:33:03.387Z,12.90
2019-05-26T00:35:32.586Z,12.80
2019-05-26T00:38:01.507Z,12.80
2019-05-26T00:40:30.506Z,12.80
2019-05-26T00:42:59.494Z,12.80
2019-05-26T00:45:28.490Z,12.70
2019-05-26T00:47:57.470Z,12.60
2019-05-26T00:50:26.626Z,12.70
2019-05-26T00:52:56.876Z,12.60
2019-05-26T00:55:26.109Z,12.60
2019-05-26T00:57:55.341Z,12.50
2019-05-26T01:00:38.445Z,12.60
2019-05-26T01:03:07.768Z,12.50
2019-05-26T01:05:36.857Z,12.50
2019-05-26T01:08:07.074Z,12.40
2019-05-26T01:10:36.695Z,12.40
2019-05-26T01:13:06.626Z,12.40
2019-05-26T01:15:35.638Z,12.40
2019-05-26T01:18:05.575Z,12.30
2019-05-26T01:20:34.820Z,12.30
2019-05-26T01:23:04.211Z,12.20
2019-05-26T01:25:33.194Z,12.20
2019-05-26T01:28:02.051Z,12.20
2019-05-26T01:30:35.988Z,12.10
2019-05-26T01:33:05.903Z,12.10
2019-05-26T01:35:36.716Z,12.10
2019-05-26T01:38:20.605Z,12.10
2019-05-26T01:40:39.117Z,12.10
2019-05-26T01:43:08.317Z,12.10
2019-05-26T01:45:37.412Z,12.10
2019-05-26T01:48:07.542Z,12.10
2019-05-26T01:50:36.866Z,12.10
2019-05-26T01:53:07.337Z,12.00
2019-05-26T01:55:36.419Z,12.00
2019-05-26T01:58:05.699Z,11.90
2019-05-26T02:00:34.807Z,11.90
2019-05-26T02:03:04.087Z,11.80
2019-05-26T02:05:33.108Z,11.70
2019-05-26T02:08:02.092Z,11.70
2019-05-26T02:10:31.069Z,11.60
2019-05-26T02:13:00.092Z,11.60
2019-05-26T02:15:29.131Z,11.50
2019-05-26T02:17:58.129Z,11.50
2019-05-26T02:20:27.103Z,11.50
2019-05-26T02:22:56.343Z,11.50
2019-05-26T02:25:25.538Z,11.50
2019-05-26T02:27:54.794Z,11.50
2019-05-26T02:30:24.064Z,11.50
2019-05-26T02:32:53.009Z,11.60
2019-05-26T02:35:23.476Z,11.60
2019-05-26T02:37:52.783Z,11.60
2019-05-26T02:40:22.363Z,11.70
2019-05-26T02:42:51.360Z,11.60
2019-05-26T02:45:21.848Z,11.70
2019-05-26T02:47:50.760Z,11.60
2019-05-26T02:50:20.151Z,11.60
2019-05-26T02:52:49.166Z,11.60
2019-05-26T02:55:18.555Z,11.60
2019-05-26T02:57:47.805Z,11.60
2019-05-26T03:00:25.359Z,11.70
2019-05-26T03:02:54.344Z,11.60
2019-05-26T03:05:23.246Z,11.70
2019-05-26T03:07:52.338Z,11.70
2019-05-26T03:10:21.371Z,11.70
2019-05-26T03:12:52.635Z,11.70
2019-05-26T03:15:22.074Z,11.70
2019-05-26T03:17:52.771Z,11.70
2019-05-26T03:20:21.983Z,11.70
2019-05-26T03:22:52.450Z,11.70
2019-05-26T03:25:21.359Z,11.70
2019-05-26T03:27:50.287Z,11.70
2019-05-26T03:30:19.195Z,11.70
2019-05-26T03:32:48.195Z,11.70
2019-05-26T03:35:17.193Z,11.70
2019-05-26T03:37:46.101Z,11.70
2019-05-26T03:40:15.347Z,11.70
2019-05-26T03:42:44.219Z,11.70
2019-05-26T03:45:22.763Z,11.70
2019-05-26T03:47:52.037Z,11.70
2019-05-26T03:50:21.497Z,11.60
2019-05-26T03:52:50.680Z,11.60
2019-05-26T03:55:19.586Z,11.50
2019-05-26T03:57:48.754Z,11.50
2019-05-26T04:00:17.971Z,11.50
2019-05-26T04:02:46.886Z,11.50
2019-05-26T04:05:15.798Z,11.50
2019-05-26T04:07:44.650Z,11.50
2019-05-26T04:10:13.727Z,11.50
2019-05-26T04:12:42.711Z,11.50
2019-05-26T04:15:11.794Z,11.50
2019-05-26T04:17:40.813Z,11.50
2019-05-26T04:20:10.095Z,11.50
2019-05-26T04:22:38.942Z,11.50
2019-05-26T04:25:08.252Z,11.60
2019-05-26T04:27:37.168Z,11.70
2019-05-26T04:30:06.456Z,11.80
2019-05-26T04:32:35.696Z,11.80
2019-05-26T04:35:05.704Z,11.90
2019-05-26T04:37:34.588Z,12.00
2019-05-26T04:40:22.470Z,12.10
2019-05-26T04:42:34.388Z,12.10
2019-05-26T04:45:03.464Z,12.10
2019-05-26T04:47:32.305Z,12.20
2019-05-26T04:50:01.566Z,12.20
2019-05-26T04:52:30.854Z,12.30
2019-05-26T04:54:59.776Z,12.30
2019-05-26T04:57:28.618Z,12.40
2019-05-26T04:59:57.540Z,12.40
2019-05-26T05:02:26.560Z,12.50
2019-05-26T05:04:55.576Z,12.50
2019-05-26T05:07:28.057Z,12.50
2019-05-26T05:09:55.052Z,12.60
2019-05-26T05:12:23.967Z,12.60
2019-05-26T05:14:53.138Z,12.70
2019-05-26T05:17:21.974Z,12.80
2019-05-26T05:19:50.826Z,12.80
2019-05-26T05:22:20.027Z,12.80
2019-05-26T05:24:48.875Z,12.80
2019-05-26T05:27:17.859Z,12.90
2019-05-26T05:29:46.702Z,12.90
2019-05-26T05:32:15.682Z,13.00
2019-05-26T05:34:44.679Z,13.10
2019-05-26T05:37:13.514Z,13.10
2019-05-26T05:39:42.371Z,13.30
2019-05-26T05:42:11.609Z,13.40
2019-05-26T05:44:40.846Z,13.50
2019-05-26T05:47:09.754Z,13.70
2019-05-26T05:49:38.684Z,13.70
2019-05-26T05:52:07.584Z,13.80
2019-05-26T05:54:36.588Z,13.80
2019-05-26T05:57:05.819Z,13.80
2019-05-26T05:59:34.746Z,13.90
2019-05-26T06:02:03.734Z,13.90
2019-05-26T06:04:32.654Z,14.10
2019-05-26T06:07:02.059Z,14.20
2019-05-26T06:09:31.058Z,14.30
2019-05-26T06:11:59.904Z,14.30
2019-05-26T06:14:29.175Z,14.40
2019-05-26T06:16:58.762Z,14.40
2019-05-26T06:19:33.458Z,14.50
2019-05-26T06:22:02.453Z,14.60
2019-05-26T06:24:34.865Z,14.70
2019-05-26T06:27:04.032Z,14.90
2019-05-26T06:29:32.873Z,14.90
2019-05-26T06:32:02.315Z,15.10
2019-05-26T06:34:32.031Z,15.30
2019-05-26T06:37:00.880Z,15.40
2019-05-26T06:39:29.791Z,15.50
2019-05-26T06:41:58.694Z,15.30
2019-05-26T06:44:28.254Z,15.20
2019-05-26T06:46:57.169Z,15.30
2019-05-26T06:49:26.236Z,15.60
2019-05-26T06:51:55.219Z,16.00
2019-05-26T06:54:24.395Z,16.00
2019-05-26T06:56:53.387Z,16.20
2019-05-26T06:59:22.531Z,16.90
2019-05-26T07:01:51.716Z,17.50
2019-05-26T07:04:20.922Z,17.80
2019-05-26T07:06:49.783Z,18.50
2019-05-26T07:09:18.795Z,18.80
2019-05-26T07:11:57.085Z,19.40
2019-05-26T07:14:18.611Z,19.50
2019-05-26T07:16:47.770Z,19.40
2019-05-26T07:19:16.907Z,19.60
2019-05-26T07:21:46.162Z,20.40
2019-05-26T07:24:14.997Z,20.50
2019-05-26T07:26:43.839Z,20.80
2019-05-26T07:29:13.038Z,20.90
2019-05-26T07:31:41.906Z,21.00
2019-05-26T07:34:10.806Z,21.40
2019-05-26T07:36:39.911Z,21.10
2019-05-26T07:39:09.469Z,21.40
2019-05-26T07:41:38.387Z,22.10
2019-05-26T07:44:07.290Z,22.30
2019-05-26T07:46:36.223Z,22.60
2019-05-26T07:49:05.130Z,22.70
2019-05-26T07:51:34.375Z,23.30
2019-05-26T07:54:03.808Z,23.20
2019-05-26T07:56:32.944Z,22.70
2019-05-26T07:59:01.855Z,22.90
2019-05-26T08:01:36.177Z,23.30
2019-05-26T08:04:01.583Z,23.30
2019-05-26T08:06:30.510Z,24.20
2019-05-26T08:08:59.414Z,23.70
2019-05-26T08:11:28.264Z,22.90
2019-05-26T08:13:57.093Z,23.20
2019-05-26T08:16:26.100Z,23.30
2019-05-26T08:18:54.940Z,23.90
2019-05-26T08:21:23.852Z,23.40
2019-05-26T08:23:52.774Z,23.90
2019-05-26T08:26:21.618Z,23.50
2019-05-26T08:28:50.738Z,24.10
2019-05-26T08:31:19.906Z,24.70
2019-05-26T08:33:48.742Z,24.90
2019-05-26T08:36:17.683Z,24.40
2019-05-26T08:38:46.590Z,24.10
2019-05-26T08:41:15.533Z,23.90
2019-05-26T08:43:44.407Z,24.10
2019-05-26T08:46:13.495Z,25.10
2019-05-26T08:48:42.397Z,25.40
2019-05-26T08:51:11.666Z,24.60
2019-05-26T08:53:40.570Z,24.20
2019-05-26T08:56:09.826Z,24.50
2019-05-26T08:58:38.670Z,24.90
2019-05-26T09:01:07.865Z,24.50
2019-05-26T09:03:36.795Z,24.40
2019-05-26T09:06:05.819Z,25.20
2019-05-26T09:08:35.090Z,24.70
2019-05-26T09:11:04.083Z,24.80
2019-05-26T09:13:33.012Z,24.60
2019-05-26T09:16:02.204Z,25.00
2019-05-26T09:18:31.354Z,24.80
2019-05-26T09:21:00.671Z,24.70
2019-05-26T09:23:29.617Z,24.10
2019-05-26T09:25:58.527Z,24.00
2019-05-26T09:28:27.671Z,24.40
2019-05-26T09:30:56.618Z,24.60
2019-05-26T09:33:25.608Z,25.10
2019-05-26T09:35:54.602Z,24.40
2019-05-26T09:38:23.607Z,25.30
2019-05-26T09:40:52.595Z,24.60
2019-05-26T09:43:21.660Z,24.00
2019-05-26T09:45:50.948Z,23.90
2019-05-26T09:48:19.926Z,24.60
2019-05-26T09:50:48.770Z,26.10
2019-05-26T09:53:17.692Z,26.90
2019-05-26T09:55:46.644Z,27.60
2019-05-26T09:58:15.538Z,26.60
2019-05-26T10:00:44.862Z,26.30
2019-05-26T10:03:14.215Z,26.30
2019-05-26T10:05:43.486Z,26.00
2019-05-26T10:08:12.402Z,25.30
2019-05-26T10:10:41.399Z,25.10
2019-05-26T10:13:10.264Z,24.60
2019-05-26T10:15:39.259Z,24.70
2019-05-26T10:18:08.262Z,25.30
2019-05-26T10:20:37.112Z,26.30
2019-05-26T10:23:06.144Z,27.10
2019-05-26T10:25:35.050Z,27.90
2019-05-26T10:28:04.061Z,27.40
2019-05-26T10:30:33.293Z,27.80
2019-05-26T10:33:02.306Z,27.70
2019-05-26T10:35:31.570Z,27.90
2019-05-26T10:38:00.727Z,28.70
2019-05-26T10:40:29.970Z,28.20
2019-05-26T10:42:58.974Z,27.20
2019-05-26T10:45:28.294Z,27.40
2019-05-26T10:47:57.607Z,26.70
2019-05-26T10:50:26.610Z,27.10
2019-05-26T10:52:55.543Z,28.10
2019-05-26T10:55:24.732Z,28.80
2019-05-26T10:57:53.814Z,29.00
2019-05-26T11:00:22.925Z,29.00
2019-05-26T11:02:51.919Z,28.70
2019-05-26T11:05:20.917Z,29.00
2019-05-26T11:07:49.767Z,29.40
2019-05-26T11:10:18.770Z,28.50
2019-05-26T11:12:47.691Z,28.20
2019-05-26T11:15:17.390Z,27.80
2019-05-26T11:17:46.322Z,28.30
2019-05-26T11:20:16.095Z,28.70
2019-05-26T11:25:16.266Z,27.40
2019-05-26T11:27:45.178Z,26.60
2019-05-26T11:30:14.584Z,26.50
2019-05-26T11:32:43.627Z,27.20
2019-05-26T11:35:14.466Z,28.10
2019-05-26T11:37:43.381Z,29.00
2019-05-26T11:40:12.780Z,28.40
2019-05-26T11:42:44.638Z,27.90
2019-05-26T11:45:12.965Z,25.80
2019-05-26T11:47:41.948Z,25.40
2019-05-26T11:50:11.500Z,25.90
2019-05-26T11:52:40.448Z,25.90
2019-05-26T11:55:09.538Z,26.90
2019-05-26T11:57:38.671Z,25.90
2019-05-26T12:00:08.831Z,26.60
2019-05-26T12:02:38.739Z,25.60
2019-05-26T12:05:09.414Z,25.70
2019-05-26T12:07:38.396Z,25.60
2019-05-26T12:10:07.967Z,26.40
2019-05-26T12:12:36.903Z,27.00
2019-05-26T12:15:06.465Z,27.30
2019-05-26T12:17:35.631Z,27.30
2019-05-26T12:20:05.671Z,26.70
2019-05-26T12:22:35.359Z,27.40
2019-05-26T12:25:23.475Z,26.90
2019-05-26T12:27:52.556Z,26.50
2019-05-26T12:30:23.024Z,26.20
2019-05-26T12:32:51.949Z,25.80
2019-05-26T12:35:20.958Z,25.90
2019-05-26T12:37:49.809Z,25.30
2019-05-26T12:40:19.424Z,25.90
2019-05-26T12:42:48.431Z,25.60
2019-05-26T12:45:17.938Z,25.50
2019-05-26T12:47:46.940Z,25.00
2019-05-26T12:50:17.747Z,24.80
2019-05-26T12:52:47.001Z,24.80
2019-05-26T12:55:16.144Z,24.70
2019-05-26T12:57:45.459Z,23.80
2019-05-26T13:00:15.437Z,23.50
2019-05-26T13:02:44.382Z,23.80
2019-05-26T13:05:13.536Z,24.30
2019-05-26T13:07:42.377Z,24.70
2019-05-26T13:10:11.483Z,24.90
2019-05-26T13:12:40.594Z,25.40
2019-05-26T13:15:10.810Z,26.20
2019-05-26T13:17:39.811Z,25.90
2019-05-26T13:20:09.736Z,24.90
2019-05-26T13:22:39.923Z,25.10
2019-05-26T13:25:10.211Z,25.10
2019-05-26T13:27:39.443Z,25.20
2019-05-26T13:30:09.550Z,25.40
2019-05-26T13:32:38.769Z,26.30
2019-05-26T13:35:08.331Z,26.20
2019-05-26T13:37:37.650Z,26.60
2019-05-26T13:40:07.974Z,26.10
2019-05-26T13:42:38.016Z,26.60
2019-05-26T13:45:21.217Z,26.40
2019-05-26T13:47:38.339Z,25.90
2019-05-26T13:50:08.513Z,25.90
2019-05-26T13:52:37.739Z,25.80
2019-05-26T13:55:07.136Z,25.80
2019-05-26T13:57:36.503Z,26.00
2019-05-26T14:00:07.612Z,26.20
2019-05-26T14:02:36.963Z,25.90
2019-05-26T14:05:06.439Z,26.30
2019-05-26T14:07:35.443Z,26.40
2019-05-26T14:10:04.778Z,26.20
2019-05-26T14:12:33.788Z,26.30
2019-05-26T14:15:02.921Z,26.10
2019-05-26T14:17:33.714Z,26.40
2019-05-26T14:20:04.227Z,25.70
2019-05-26T14:22:33.201Z,25.50
2019-05-26T14:25:02.211Z,25.30
2019-05-26T14:27:31.258Z,25.10
2019-05-26T14:30:00.448Z,25.20
2019-05-26T14:32:29.530Z,25.30
2019-05-26T14:34:58.557Z,25.00
2019-05-26T14:37:27.503Z,24.80
2019-05-26T14:39:56.848Z,24.40
2019-05-26T14:42:25.746Z,24.10
2019-05-26T14:44:54.831Z,24.40
2019-05-26T14:47:23.942Z,25.00
2019-05-26T14:49:53.416Z,25.20
2019-05-26T14:52:22.795Z,25.30
2019-05-26T14:54:52.826Z,25.30
2019-05-26T14:57:21.800Z,24.90
2019-05-26T14:59:50.995Z,25.10
2019-05-26T15:02:20.056Z,25.40
2019-05-26T15:04:49.086Z,24.70
2019-05-26T15:07:18.147Z,24.50
2019-05-26T15:09:47.192Z,24.60
2019-05-26T15:12:16.616Z,24.70
2019-05-26T15:14:45.527Z,24.70
2019-05-26T15:17:14.534Z,24.40
2019-05-26T15:19:43.530Z,24.00
2019-05-26T15:22:12.539Z,23.70
2019-05-26T15:24:41.679Z,24.00
2019-05-26T15:27:10.956Z,24.20
2019-05-26T15:29:39.882Z,24.30
2019-05-26T15:32:09.136Z,24.10
2019-05-26T15:34:38.121Z,24.30
2019-05-26T15:37:07.111Z,24.30
2019-05-26T15:39:35.955Z,23.90
2019-05-26T15:42:08.230Z,23.80
2019-05-26T15:44:36.089Z,23.90
2019-05-26T15:47:05.263Z,23.70
2019-05-26T15:49:34.172Z,23.70
2019-05-26T15:52:03.122Z,23.60
2019-05-26T15:54:31.977Z,23.60
2019-05-26T15:57:01.207Z,23.60
2019-05-26T15:59:30.241Z,23.50
2019-05-26T16:01:59.514Z,23.30
2019-05-26T16:04:28.702Z,23.20
2019-05-26T16:06:58.104Z,23.10
2019-05-26T16:09:27.030Z,23.10
2019-05-26T16:11:56.335Z,23.20
2019-05-26T16:14:25.331Z,23.10
2019-05-26T16:16:54.478Z,23.00
2019-05-26T16:19:23.490Z,22.90
2019-05-26T16:21:52.403Z,22.80
2019-05-26T16:24:21.312Z,22.40
2019-05-26T16:26:50.309Z,22.20
2019-05-26T16:29:19.171Z,22.20
2019-05-26T16:31:48.259Z,22.20
2019-05-26T16:34:17.343Z,22.10
2019-05-26T16:36:46.338Z,22.10
2019-05-26T16:39:15.569Z,22.10
2019-05-26T16:41:44.406Z,22.00
2019-05-26T16:44:13.342Z,22.00
2019-05-26T16:46:55.379Z,22.10
2019-05-26T16:49:13.347Z,22.00
2019-05-26T16:51:42.266Z,21.90
2019-05-26T16:54:11.119Z,21.80
2019-05-26T16:56:40.040Z,21.70
2019-05-26T16:59:09.004Z,21.70
2019-05-26T17:01:37.853Z,21.60
2019-05-26T17:04:06.928Z,21.60
2019-05-26T17:06:35.762Z,21.50
2019-05-26T17:09:07.043Z,21.50
2019-05-26T17:11:36.032Z,21.50
2019-05-26T17:14:05.187Z,21.50
2019-05-26T17:16:34.166Z,21.40
2019-05-26T17:19:18.491Z,21.30
2019-05-26T17:21:47.830Z,21.20
2019-05-26T17:24:16.867Z,21.20
2019-05-26T17:26:45.859Z,21.20
2019-05-26T17:29:14.788Z,21.10
2019-05-26T17:31:43.694Z,21.10
2019-05-26T17:34:12.794Z,21.00
2019-05-26T17:36:41.748Z,20.90
2019-05-26T17:39:10.807Z,20.90
2019-05-26T17:41:39.966Z,20.80
2019-05-26T17:44:08.885Z,20.70
2019-05-26T17:46:38.291Z,20.60
2019-05-26T17:49:07.514Z,20.60
2019-05-26T17:51:36.511Z,20.50
2019-05-26T17:54:05.615Z,20.50
2019-05-26T17:56:34.874Z,20.40
2019-05-26T17:59:03.999Z,21.00
2019-05-26T18:01:32.995Z,20.30
2019-05-26T18:04:01.918Z,20.20
2019-05-26T18:06:30.827Z,20.10
2019-05-26T18:08:59.817Z,20.00
2019-05-26T18:11:28.850Z,19.90
2019-05-26T18:13:57.722Z,19.70
2019-05-26T18:16:26.641Z,19.50
2019-05-26T18:18:55.570Z,19.40
2019-05-26T18:21:24.471Z,19.20
2019-05-26T18:23:53.313Z,19.10
2019-05-26T18:26:22.332Z,18.90
2019-05-26T18:28:51.284Z,18.80
2019-05-26T18:31:20.187Z,18.70
2019-05-26T18:33:49.031Z,18.60
2019-05-26T18:36:18.506Z,18.40
2019-05-26T18:38:47.424Z,18.30
2019-05-26T18:41:16.338Z,18.20
2019-05-26T18:43:45.246Z,18.00
2019-05-26T18:46:14.269Z,17.90
2019-05-26T18:48:43.477Z,17.80
2019-05-26T18:51:12.698Z,17.70
2019-05-26T18:53:41.614Z,17.60
2019-05-26T18:56:10.602Z,17.50
2019-05-26T18:58:39.518Z,17.30
2019-05-26T19:01:08.673Z,17.20
2019-05-26T19:03:37.572Z,17.10
2019-05-26T19:06:06.563Z,17.00
2019-05-26T19:08:35.542Z,16.90
2019-05-26T19:11:04.555Z,16.80
2019-05-26T19:13:33.386Z,16.70
2019-05-26T19:16:02.295Z,16.60
2019-05-26T19:18:31.194Z,16.50
2019-05-26T19:21:00.352Z,16.40
2019-05-26T19:23:29.267Z,16.30
2019-05-26T19:25:58.101Z,16.20
2019-05-26T19:28:27.342Z,16.10
2019-05-26T19:30:56.554Z,16.00
2019-05-26T19:33:25.975Z,15.90
2019-05-26T19:35:55.158Z,15.80
2019-05-26T19:38:24.011Z,15.70
2019-05-26T19:40:53.181Z,15.60
2019-05-26T19:43:22.241Z,15.50
2019-05-26T19:45:51.092Z,15.50
2019-05-26T19:48:35.035Z,15.40
2019-05-26T19:50:50.982Z,15.30
2019-05-26T19:53:20.133Z,15.20
2019-05-26T19:55:49.226Z,15.10
2019-05-26T19:58:18.237Z,15.10
2019-05-26T20:00:47.231Z,15.00
2019-05-26T20:03:16.156Z,15.00
2019-05-26T20:05:45.347Z,14.90
2019-05-26T20:08:14.250Z,14.80
2019-05-26T20:10:43.239Z,14.70
2019-05-26T20:13:12.230Z,14.60
2019-05-26T20:15:41.661Z,14.50
2019-05-26T20:18:10.650Z,14.50
2019-05-26T20:20:39.558Z,14.40
2019-05-26T20:23:08.538Z,14.30
2019-05-26T20:25:37.456Z,14.30
2019-05-26T20:28:06.746Z,14.20
2019-05-26T20:30:35.598Z,14.20
2019-05-26T20:33:04.578Z,14.10
2019-05-26T20:35:33.419Z,14.10
2019-05-26T20:38:02.335Z,14.00
2019-05-26T20:40:31.340Z,14.00
2019-05-26T20:43:19.393Z,13.90
2019-05-26T20:45:51.698Z,13.90
2019-05-26T20:48:20.910Z,13.80
2019-05-26T20:50:49.835Z,13.70
2019-05-26T20:53:18.751Z,13.70
2019-05-26T20:55:47.828Z,13.60
2019-05-26T20:58:16.762Z,13.60
2019-05-26T21:00:45.681Z,13.50
2019-05-26T21:03:14.594Z,13.50
2019-05-26T21:05:43.503Z,13.40
2019-05-26T21:08:12.364Z,13.40
2019-05-26T21:10:41.273Z,13.40
2019-05-26T21:13:10.202Z,13.30
2019-05-26T21:15:39.044Z,13.30
2019-05-26T21:18:08.010Z,13.20
2019-05-26T21:20:37.218Z,13.10
2019-05-26T21:23:06.418Z,13.10
2019-05-26T21:25:35.558Z,13.10
2019-05-26T21:28:05.323Z,13.10
2019-05-26T21:30:34.462Z,13.00
2019-05-26T21:33:03.943Z,13.00
2019-05-26T21:35:32.854Z,12.90
2019-05-26T21:38:01.705Z,12.90
2019-05-26T21:40:30.912Z,12.80
2019-05-26T21:42:59.742Z,12.80
2019-05-26T21:45:28.732Z,12.70
2019-05-26T21:47:58.138Z,12.60
2019-05-26T21:50:27.063Z,12.60
2019-05-26T21:52:56.221Z,12.50
2019-05-26T21:55:25.134Z,12.40
2019-05-26T21:57:54.002Z,12.40
2019-05-26T22:00:27.083Z,12.30
2019-05-26T22:02:56.164Z,12.30
2019-05-26T22:05:25.762Z,12.20
2019-05-26T22:07:54.690Z,12.10
2019-05-26T22:10:23.665Z,12.10
2019-05-26T22:12:52.511Z,12.00
2019-05-26T22:15:21.499Z,12.00
2019-05-26T22:17:50.347Z,11.90
2019-05-26T22:20:19.765Z,11.90
2019-05-26T22:22:48.680Z,11.80
2019-05-26T22:25:17.657Z,11.80
2019-05-26T22:27:46.584Z,11.80
2019-05-26T22:30:16.002Z,11.70
2019-05-26T22:32:45.012Z,11.70
2019-05-26T22:35:14.139Z,11.60
2019-05-26T22:37:43.167Z,11.60
2019-05-26T22:40:12.262Z,11.60
2019-05-26T22:42:41.180Z,11.60
2019-05-26T22:45:10.754Z,11.60
2019-05-26T22:47:39.759Z,11.50
2019-05-26T22:50:09.990Z,11.50
2019-05-26T22:52:39.050Z,11.50
2019-05-26T22:55:08.733Z,11.50
2019-05-26T22:57:37.706Z,11.50
2019-05-26T23:00:08.525Z,11.50
2019-05-26T23:02:37.427Z,11.50
2019-05-26T23:05:07.171Z,11.50
2019-05-26T23:07:36.117Z,11.60
2019-05-26T23:10:07.286Z,11.60
2019-05-26T23:12:36.222Z,11.50
2019-05-26T23:15:05.909Z,11.50
2019-05-26T23:17:35.174Z,11.50
2019-05-26T23:20:23.690Z,11.50
2019-05-26T23:22:53.182Z,11.40
2019-05-26T23:25:22.110Z,11.40
2019-05-26T23:27:51.254Z,11.30
2019-05-26T23:30:23.530Z,11.20
2019-05-26T23:32:52.831Z,11.20
2019-05-26T23:35:22.749Z,11.10
2019-05-26T23:37:52.169Z,11.00
2019-05-26T23:40:21.169Z,11.00
2019-05-26T23:42:50.284Z,10.90
2019-05-26T23:45:20.478Z,10.90
2019-05-26T23:47:49.628Z,10.90
2019-05-26T23:50:18.738Z,10.80
2019-05-26T23:52:47.757Z,10.80
2019-05-26T23:55:16.823Z,10.80
2019-05-26T23:57:45.869Z,10.70
